Time;durP1;ratioP1;P1;durP2;ratioP2;P2;SDS_P1;SDS_P2;PMS_P1;PMS_P2;Temp;Humidity;BMP_temperature;BMP_pressure;BME280_temperature;BME280_humidity;BME280_pressure;Samples;Min_cycle;Max_cycle;Signal;HPM_P1;HPM_P2
2022/10/19 00:01:06;;;;;;;0.20;0.10;;;;;;;;;;5032529;28;20055;-83
2022/10/19 00:03:33;;;;;;;0.20;0.10;;;;;;;;;;5017307;28;20076;-80
2022/10/19 00:05:59;;;;;;;0.20;0.10;;;;;;;;;;5029205;28;20047;-83
2022/10/19 00:08:25;;;;;;;0.22;0.13;;;;;;;;;;5014109;28;20041;-82
2022/10/19 00:10:51;;;;;;;0.20;0.10;;;;;;;;;;5020303;28;20717;-81
2022/10/19 00:13:17;;;;;;;0.20;0.10;;;;;;;;;;5028583;28;20033;-82
2022/10/19 00:15:44;;;;;;;0.20;0.10;;;;;;;;;;5029866;28;20554;-81
2022/10/19 00:18:10;;;;;;;0.20;0.10;;;;;;;;;;5032726;28;20065;-82
2022/10/19 00:20:36;;;;;;;0.20;0.10;;;;;;;;;;5016363;28;20037;-82
2022/10/19 00:23:02;;;;;;;0.20;0.10;;;;;;;;;;5019595;28;20120;-82
2022/10/19 00:25:28;;;;;;;0.20;0.10;;;;;;;;;;5017956;28;20032;-83
2022/10/19 00:27:54;;;;;;;0.20;0.10;;;;;;;;;;5016906;28;20053;-82
2022/10/19 00:30:20;;;;;;;0.20;0.10;;;;;;;;;;5038595;28;20502;-81
2022/10/19 00:32:47;;;;;;;0.20;0.10;;;;;;;;;;5017852;28;20499;-80
2022/10/19 00:35:13;;;;;;;0.20;0.10;;;;;;;;;;5031322;28;20523;-83
2022/10/19 00:37:39;;;;;;;0.20;0.15;;;;;;;;;;5015521;28;20068;-81
2022/10/19 00:40:05;;;;;;;0.20;0.10;;;;;;;;;;5018347;28;20090;-82
2022/10/19 00:42:31;;;;;;;0.20;0.10;;;;;;;;;;5017265;28;20037;-80
2022/10/19 00:44:58;;;;;;;0.20;0.10;;;;;;;;;;4998047;28;20040;-83
2022/10/19 00:47:24;;;;;;;0.47;0.30;;;;;;;;;;5028298;28;20049;-81
2022/10/19 00:49:51;;;;;;;0.20;0.10;;;;;;;;;;5030802;28;20063;-82
2022/10/19 00:52:19;;;;;;;0.20;0.10;;;;;;;;;;5000206;28;20036;-82
2022/10/19 00:54:46;;;;;;;0.20;0.10;;;;;;;;;;5019547;28;20072;-83
2022/10/19 00:57:13;;;;;;;0.20;0.10;;;;;;;;;;5014477;28;20063;-82
2022/10/19 00:59:40;;;;;;;0.20;0.10;;;;;;;;;;5015591;28;20884;-82
2022/10/19 01:02:06;;;;;;;0.20;0.10;;;;;;;;;;5029710;28;20283;-82
2022/10/19 01:04:34;;;;;;;0.20;0.10;;;;;;;;;;5030295;28;20490;-82
2022/10/19 01:07:01;;;;;;;0.20;0.10;;;;;;;;;;5028665;28;20131;-80
2022/10/19 01:09:27;;;;;;;0.20;0.10;;;;;;;;;;5030754;28;20068;-80
2022/10/19 01:12:05;;;;;;;0.20;0.10;;;;;;;;;;5031074;28;20044;-81
2022/10/19 01:14:49;;;;;;;0.20;0.10;;;;;;;;;;5028733;28;20076;-82
2022/10/19 01:17:19;;;;;;;0.20;0.10;;;;;;;;;;5031320;28;20040;-80
2022/10/19 01:20:04;;;;;;;0.20;0.10;;;;;;;;;;5030328;28;20053;-81
2022/10/19 01:22:57;;;;;;;0.20;0.10;;;;;;;;;;5012900;28;20409;-83
2022/10/19 01:25:29;;;;;;;0.20;0.10;;;;;;;;;;5031169;28;20037;-82
2022/10/19 01:28:08;;;;;;;0.20;0.10;;;;;;;;;;5017753;28;20060;-82
2022/10/19 01:30:49;;;;;;;0.20;0.08;;;;;;;;;;5016448;28;20049;-83
2022/10/19 01:33:15;;;;;;;0.20;0.10;;;;;;;;;;5032251;28;21673;-82
2022/10/19 01:35:53;;;;;;;0.20;0.10;;;;;;;;;;5026350;28;20497;-82
2022/10/19 01:38:22;;;;;;;0.20;0.10;;;;;;;;;;5017148;28;20124;-82
2022/10/19 01:41:03;;;;;;;0.20;0.10;;;;;;;;;;5043505;28;20387;-82
2022/10/19 01:43:36;;;;;;;0.20;0.10;;;;;;;;;;5032376;28;20040;-82
2022/10/19 01:46:34;;;;;;;0.20;0.10;;;;;;;;;;5032314;28;20661;-81
2022/10/19 01:49:03;;;;;;;0.20;0.10;;;;;;;;;;4979796;28;20717;-82
2022/10/19 01:51:32;;;;;;;0.20;0.10;;;;;;;;;;5030256;28;20458;-81
2022/10/19 01:54:00;;;;;;;0.20;0.10;;;;;;;;;;5049594;22;20068;-84
2022/10/19 01:56:27;;;;;;;0.20;0.10;;;;;;;;;;5013725;28;20121;-84
2022/10/19 01:58:56;;;;;;;0.20;0.10;;;;;;;;;;5031893;28;20041;-85
2022/10/19 02:01:23;;;;;;;0.20;0.10;;;;;;;;;;5030938;28;20567;-85
2022/10/19 02:03:51;;;;;;;0.20;0.10;;;;;;;;;;5032140;28;20040;-85
2022/10/19 02:06:17;;;;;;;0.20;0.10;;;;;;;;;;5031004;28;20607;-84
2022/10/19 02:08:45;;;;;;;0.20;0.10;;;;;;;;;;5015783;28;20529;-84
2022/10/19 02:11:11;;;;;;;0.20;0.10;;;;;;;;;;5029205;28;20121;-84
2022/10/19 02:13:39;;;;;;;0.20;0.10;;;;;;;;;;5013203;28;20044;-85
2022/10/19 02:16:07;;;;;;;0.20;0.10;;;;;;;;;;5016804;28;20453;-85
2022/10/19 02:18:36;;;;;;;0.20;0.10;;;;;;;;;;5014211;28;20522;-84
2022/10/19 02:21:06;;;;;;;0.20;0.10;;;;;;;;;;5030790;28;20438;-84
2022/10/19 02:23:32;;;;;;;0.20;0.10;;;;;;;;;;5018536;28;20428;-83
2022/10/19 02:25:59;;;;;;;0.20;0.10;;;;;;;;;;5014487;28;20094;-84
2022/10/19 02:28:25;;;;;;;0.20;0.10;;;;;;;;;;5014966;28;20044;-83
2022/10/19 02:30:51;;;;;;;0.20;0.10;;;;;;;;;;5031746;28;20441;-83
2022/10/19 02:33:18;;;;;;;0.20;0.10;;;;;;;;;;5034330;28;20040;-84
2022/10/19 02:35:44;;;;;;;0.20;0.10;;;;;;;;;;5016031;28;20087;-84
2022/10/19 02:38:11;;;;;;;0.20;0.10;;;;;;;;;;5017948;28;20156;-85
2022/10/19 02:40:39;;;;;;;0.20;0.10;;;;;;;;;;5014061;28;20411;-84
2022/10/19 02:43:09;;;;;;;0.20;0.10;;;;;;;;;;5033513;28;20541;-85
2022/10/19 02:45:37;;;;;;;0.20;0.10;;;;;;;;;;5017022;28;20045;-84
2022/10/19 02:48:06;;;;;;;0.20;0.10;;;;;;;;;;5036390;28;20045;-84
2022/10/19 02:50:33;;;;;;;0.20;0.10;;;;;;;;;;5033208;28;20041;-85
2022/10/19 02:52:59;;;;;;;0.20;0.10;;;;;;;;;;5003202;28;20699;-85
2022/10/19 02:55:25;;;;;;;0.20;0.10;;;;;;;;;;5015574;28;20517;-85
2022/10/19 02:57:52;;;;;;;0.20;0.10;;;;;;;;;;5016324;28;20680;-85
2022/10/19 03:00:18;;;;;;;0.20;0.10;;;;;;;;;;4997988;28;20640;-84
2022/10/19 03:02:44;;;;;;;0.20;0.10;;;;;;;;;;5052955;28;20075;-85
2022/10/19 03:05:10;;;;;;;0.28;0.20;;;;;;;;;;5015803;28;20045;-84
2022/10/19 03:07:37;;;;;;;0.20;0.10;;;;;;;;;;5036157;28;20064;-85
2022/10/19 03:10:03;;;;;;;0.30;0.30;;;;;;;;;;5020027;28;20083;-84
2022/10/19 03:12:29;;;;;;;0.20;0.10;;;;;;;;;;5018171;28;20059;-85
2022/10/19 03:14:55;;;;;;;0.20;0.10;;;;;;;;;;5015946;28;20453;-85
2022/10/19 03:17:21;;;;;;;0.20;0.10;;;;;;;;;;5032617;28;20094;-84
2022/10/19 03:19:47;;;;;;;0.20;0.10;;;;;;;;;;5015852;28;20125;-84
2022/10/19 03:22:13;;;;;;;0.20;0.10;;;;;;;;;;5016098;28;20033;-85
2022/10/19 03:24:40;;;;;;;0.20;0.10;;;;;;;;;;5000533;28;20072;-85
2022/10/19 03:27:06;;;;;;;0.20;0.10;;;;;;;;;;5017359;28;20045;-85
2022/10/19 03:29:32;;;;;;;0.20;0.10;;;;;;;;;;5014248;28;20047;-84
2022/10/19 03:31:58;;;;;;;0.20;0.10;;;;;;;;;;5003063;28;20041;-84
2022/10/19 03:34:24;;;;;;;0.20;0.10;;;;;;;;;;5032771;28;20688;-84
2022/10/19 03:36:50;;;;;;;0.20;0.10;;;;;;;;;;5018961;28;20452;-84
2022/10/19 03:39:16;;;;;;;0.20;0.10;;;;;;;;;;5016254;28;20044;-84
2022/10/19 03:41:43;;;;;;;0.20;0.10;;;;;;;;;;5016358;28;20055;-84
2022/10/19 03:44:10;;;;;;;0.20;0.10;;;;;;;;;;5034034;28;20126;-84
2022/10/19 03:46:36;;;;;;;0.20;0.10;;;;;;;;;;5030515;28;20134;-84
2022/10/19 03:49:03;;;;;;;0.20;0.10;;;;;;;;;;4995830;28;20131;-83
2022/10/19 03:51:29;;;;;;;0.20;0.10;;;;;;;;;;5032399;28;20224;-84
2022/10/19 03:54:00;;;;;;;0.20;0.10;;;;;;;;;;5014480;28;20037;-84
2022/10/19 03:56:26;;;;;;;0.20;0.10;;;;;;;;;;5033554;28;20102;-83
2022/10/19 03:58:53;;;;;;;0.20;0.10;;;;;;;;;;5016544;28;20060;-84
2022/10/19 04:01:21;;;;;;;0.20;0.10;;;;;;;;;;5019405;28;20033;-83
2022/10/19 04:03:47;;;;;;;0.20;0.10;;;;;;;;;;5023169;28;20036;-84
2022/10/19 04:06:17;;;;;;;0.20;0.10;;;;;;;;;;4998597;28;20041;-84
2022/10/19 04:08:44;;;;;;;0.20;0.10;;;;;;;;;;5032031;28;20029;-84
2022/10/19 04:11:14;;;;;;;0.20;0.10;;;;;;;;;;5014246;28;20083;-84
2022/10/19 04:13:40;;;;;;;0.20;0.10;;;;;;;;;;5015901;28;20037;-84
2022/10/19 04:16:06;;;;;;;0.20;0.10;;;;;;;;;;5022487;28;20067;-84
2022/10/19 04:18:33;;;;;;;0.20;0.10;;;;;;;;;;5001696;28;21941;-84
2022/10/19 04:21:00;;;;;;;0.20;0.10;;;;;;;;;;5015685;28;20036;-84
2022/10/19 04:23:27;;;;;;;0.20;0.10;;;;;;;;;;5012866;28;20261;-84
2022/10/19 04:25:58;;;;;;;0.20;0.10;;;;;;;;;;5016972;28;20037;-84
2022/10/19 04:28:24;;;;;;;0.20;0.10;;;;;;;;;;5019240;28;20505;-84
2022/10/19 04:30:50;;;;;;;0.20;0.10;;;;;;;;;;5033059;28;20072;-84
2022/10/19 04:33:16;;;;;;;0.20;0.10;;;;;;;;;;5016213;28;20134;-84
2022/10/19 04:35:43;;;;;;;0.20;0.10;;;;;;;;;;5001202;28;20481;-84
2022/10/19 04:38:09;;;;;;;0.20;0.10;;;;;;;;;;5015202;28;20045;-84
2022/10/19 04:40:38;;;;;;;0.20;0.10;;;;;;;;;;5000396;28;20138;-83
2022/10/19 04:43:04;;;;;;;0.20;0.10;;;;;;;;;;5034291;28;20875;-84
2022/10/19 04:45:30;;;;;;;0.20;0.10;;;;;;;;;;5014758;28;20041;-84
2022/10/19 04:47:56;;;;;;;0.20;0.10;;;;;;;;;;5013948;28;20099;-84
2022/10/19 04:50:23;;;;;;;0.20;0.10;;;;;;;;;;5033021;28;20068;-84
2022/10/19 04:52:49;;;;;;;0.20;0.10;;;;;;;;;;5033565;28;20657;-84
2022/10/19 04:55:15;;;;;;;0.20;0.10;;;;;;;;;;5034556;28;20568;-85
2022/10/19 04:57:41;;;;;;;0.20;0.10;;;;;;;;;;5034006;28;20131;-84
2022/10/19 05:00:08;;;;;;;0.20;0.10;;;;;;;;;;5030817;28;20037;-85
2022/10/19 05:02:34;;;;;;;0.20;0.10;;;;;;;;;;5033247;28;20041;-84
2022/10/19 05:05:00;;;;;;;0.20;0.10;;;;;;;;;;5033400;28;20178;-86
2022/10/19 05:07:26;;;;;;;0.20;0.10;;;;;;;;;;4996121;28;20099;-86
2022/10/19 05:09:52;;;;;;;0.20;0.10;;;;;;;;;;5014177;28;20032;-86
2022/10/19 05:12:18;;;;;;;0.20;0.10;;;;;;;;;;5010040;28;20667;-86
2022/10/19 05:14:44;;;;;;;0.20;0.10;;;;;;;;;;4998326;28;20100;-86
2022/10/19 05:17:11;;;;;;;0.20;0.10;;;;;;;;;;5002831;28;20040;-86
2022/10/19 05:19:37;;;;;;;0.20;0.10;;;;;;;;;;5018514;28;20048;-87
2022/10/19 05:22:06;;;;;;;0.20;0.10;;;;;;;;;;5026608;28;20043;-87
2022/10/19 05:24:32;;;;;;;0.20;0.10;;;;;;;;;;5004809;28;20152;-88
2022/10/19 05:26:58;;;;;;;0.20;0.10;;;;;;;;;;5004406;28;20044;-86
2022/10/19 05:29:24;;;;;;;0.20;0.10;;;;;;;;;;5023284;28;20052;-86
2022/10/19 05:31:50;;;;;;;0.20;0.10;;;;;;;;;;5004533;28;20135;-86
2022/10/19 05:34:16;;;;;;;0.20;0.10;;;;;;;;;;5022158;28;20390;-86
2022/10/19 05:36:42;;;;;;;0.20;0.10;;;;;;;;;;5020648;28;20049;-88
2022/10/19 05:39:12;;;;;;;0.20;0.10;;;;;;;;;;5036505;28;20037;-87
2022/10/19 05:41:38;;;;;;;0.20;0.10;;;;;;;;;;5036410;28;20130;-87
2022/10/19 05:44:04;;;;;;;0.20;0.10;;;;;;;;;;5022654;28;20510;-86
2022/10/19 05:46:31;;;;;;;0.20;0.17;;;;;;;;;;5022948;28;20483;-86
2022/10/19 05:48:58;;;;;;;0.20;0.10;;;;;;;;;;5021282;28;20594;-88
2022/10/19 05:51:24;;;;;;;0.20;0.10;;;;;;;;;;5017966;28;20621;-87
2022/10/19 05:53:55;;;;;;;0.20;0.10;;;;;;;;;;5016688;28;20505;-89
2022/10/19 05:56:22;;;;;;;0.20;0.10;;;;;;;;;;5039527;28;20067;-87
2022/10/19 05:58:48;;;;;;;0.20;0.10;;;;;;;;;;5023880;28;20049;-86
2022/10/19 06:01:15;;;;;;;0.20;0.10;;;;;;;;;;5042251;28;21065;-87
2022/10/19 06:03:41;;;;;;;0.20;0.10;;;;;;;;;;5022900;28;20047;-89
2022/10/19 06:06:08;;;;;;;0.20;0.10;;;;;;;;;;5022688;28;20065;-88
2022/10/19 06:08:34;;;;;;;0.20;0.10;;;;;;;;;;5022399;28;20036;-88
2022/10/19 06:11:08;;;;;;;0.20;0.10;;;;;;;;;;5024207;28;20543;-87
2022/10/19 06:13:35;;;;;;;0.20;0.10;;;;;;;;;;5027116;28;20044;-88
2022/10/19 06:16:01;;;;;;;0.20;0.10;;;;;;;;;;5023513;28;20400;-89
2022/10/19 06:18:27;;;;;;;0.20;0.10;;;;;;;;;;5047360;28;20166;-86
2022/10/19 06:20:54;;;;;;;0.20;0.10;;;;;;;;;;5030100;28;20037;-86
2022/10/19 06:23:20;;;;;;;0.20;0.10;;;;;;;;;;5049654;28;20044;-86
2022/10/19 06:25:46;;;;;;;0.20;0.10;;;;;;;;;;5007643;28;20037;-85
2022/10/19 06:28:12;;;;;;;0.20;0.10;;;;;;;;;;5044595;28;20411;-86
2022/10/19 06:30:41;;;;;;;0.20;0.10;;;;;;;;;;5026325;28;20780;-85
2022/10/19 06:33:07;;;;;;;0.20;0.10;;;;;;;;;;5011397;28;21760;-88
2022/10/19 06:35:34;;;;;;;0.20;0.10;;;;;;;;;;5006754;28;20557;-89
2022/10/19 06:38:00;;;;;;;0.20;0.10;;;;;;;;;;5031948;28;20036;-86
2022/10/19 06:40:26;;;;;;;0.20;0.10;;;;;;;;;;5028172;28;20064;-89
2022/10/19 06:42:54;;;;;;;0.20;0.10;;;;;;;;;;5026512;28;20163;-87
2022/10/19 06:45:20;;;;;;;0.20;0.10;;;;;;;;;;5024641;28;20084;-88
2022/10/19 06:47:46;;;;;;;0.20;0.00;;;;;;;;;;5043794;28;20032;-87
2022/10/19 06:50:12;;;;;;;0.20;0.10;;;;;;;;;;5042825;28;20041;-88
2022/10/19 06:52:39;;;;;;;0.20;0.10;;;;;;;;;;5027680;28;20506;-87
2022/10/19 06:55:06;;;;;;;0.20;0.10;;;;;;;;;;5001501;28;20044;-87
2022/10/19 06:57:32;;;;;;;0.20;0.10;;;;;;;;;;5022397;28;20052;-86
2022/10/19 06:59:58;;;;;;;0.20;0.10;;;;;;;;;;5008430;28;20124;-87
2022/10/19 07:02:24;;;;;;;0.20;0.10;;;;;;;;;;5010416;28;20044;-87
2022/10/19 07:04:50;;;;;;;0.20;0.10;;;;;;;;;;5009239;28;20449;-88
2022/10/19 07:07:16;;;;;;;0.20;0.10;;;;;;;;;;5007234;28;20318;-87
2022/10/19 07:09:42;;;;;;;0.20;0.10;;;;;;;;;;5010136;28;20316;-87
2022/10/19 07:12:09;;;;;;;0.20;0.10;;;;;;;;;;5023532;28;20044;-87
2022/10/19 07:14:38;;;;;;;0.20;0.10;;;;;;;;;;5009420;28;20063;-87
2022/10/19 07:17:07;;;;;;;0.20;0.10;;;;;;;;;;5022469;28;20783;-87
2022/10/19 07:19:33;;;;;;;0.20;0.00;;;;;;;;;;5043515;28;20557;-88
2022/10/19 07:21:59;;;;;;;0.20;0.10;;;;;;;;;;5023088;28;20078;-88
2022/10/19 07:24:26;;;;;;;0.20;0.10;;;;;;;;;;5027431;28;20132;-87
2022/10/19 07:26:52;;;;;;;0.20;0.10;;;;;;;;;;5027662;28;20556;-87
2022/10/19 07:29:18;;;;;;;0.20;0.10;;;;;;;;;;5026186;28;20108;-87
2022/10/19 07:31:44;;;;;;;0.20;0.10;;;;;;;;;;5013830;28;20387;-87
2022/10/19 07:34:12;;;;;;;0.20;0.10;;;;;;;;;;5027320;28;20074;-88
2022/10/19 07:36:38;;;;;;;0.20;0.10;;;;;;;;;;5043478;28;20377;-88
2022/10/19 07:39:05;;;;;;;0.20;0.10;;;;;;;;;;5027435;28;20048;-88
2022/10/19 07:41:33;;;;;;;0.20;0.10;;;;;;;;;;5023969;28;20081;-88
2022/10/19 07:43:59;;;;;;;0.20;0.10;;;;;;;;;;5026274;28;20060;-87
2022/10/19 07:46:28;;;;;;;0.20;0.10;;;;;;;;;;5026740;28;20400;-87
2022/10/19 07:48:54;;;;;;;0.20;0.10;;;;;;;;;;5026217;28;20108;-87
2022/10/19 07:51:21;;;;;;;0.20;0.10;;;;;;;;;;5026388;28;20395;-88
2022/10/19 07:53:47;;;;;;;0.20;0.10;;;;;;;;;;5068418;22;20056;-80
2022/10/19 07:56:18;;;;;;;0.20;0.10;;;;;;;;;;5039677;28;20040;-83
2022/10/19 07:58:44;;;;;;;0.20;0.10;;;;;;;;;;5039420;28;20121;-83
2022/10/19 08:01:11;;;;;;;0.20;0.10;;;;;;;;;;5040493;28;20111;-82
2022/10/19 08:03:38;;;;;;;0.20;0.10;;;;;;;;;;5039004;28;20036;-82
2022/10/19 08:06:05;;;;;;;0.20;0.10;;;;;;;;;;5028232;28;20504;-79
2022/10/19 08:08:31;;;;;;;0.20;0.10;;;;;;;;;;5061319;28;20753;-82
2022/10/19 08:10:57;;;;;;;0.20;0.10;;;;;;;;;;5029339;28;20362;-81
2022/10/19 08:13:24;;;;;;;0.20;0.10;;;;;;;;;;5046302;28;20032;-80
2022/10/19 08:15:50;;;;;;;0.20;0.10;;;;;;;;;;5040110;28;20032;-81
2022/10/19 08:18:17;;;;;;;0.20;0.10;;;;;;;;;;5041165;28;20043;-80
2022/10/19 08:20:43;;;;;;;0.20;0.10;;;;;;;;;;5046629;28;20078;-83
2022/10/19 08:23:09;;;;;;;0.20;0.10;;;;;;;;;;5061018;28;20036;-81
2022/10/19 08:25:36;;;;;;;0.20;0.10;;;;;;;;;;5029249;28;20043;-81
2022/10/19 08:28:02;;;;;;;0.20;0.10;;;;;;;;;;5060153;28;20032;-81
2022/10/19 08:30:28;;;;;;;0.20;0.10;;;;;;;;;;5043207;28;20044;-84
2022/10/19 08:32:54;;;;;;;0.20;0.10;;;;;;;;;;5028544;28;20081;-81
2022/10/19 08:35:23;;;;;;;0.20;0.10;;;;;;;;;;5043275;28;20045;-84
2022/10/19 08:37:49;;;;;;;0.20;0.00;;;;;;;;;;5044263;28;20043;-81
2022/10/19 08:40:20;;;;;;;0.20;0.10;;;;;;;;;;5025426;28;20127;-83
2022/10/19 08:42:57;;;;;;;0.20;0.10;;;;;;;;;;5058536;28;20127;-81
2022/10/19 08:45:30;;;;;;;0.20;0.10;;;;;;;;;;5059622;28;20036;-82
2022/10/19 08:48:19;;;;;;;0.20;0.10;;;;;;;;;;5060214;28;20064;-85
2022/10/19 08:50:46;;;;;;;0.20;0.10;;;;;;;;;;5034573;28;20059;-83
2022/10/19 08:53:15;;;;;;;0.20;0.10;;;;;;;;;;5043561;28;20143;-83
2022/10/19 08:55:45;;;;;;;0.20;0.10;;;;;;;;;;5041503;28;20079;-82
2022/10/19 08:58:24;;;;;;;0.20;0.10;;;;;;;;;;5040043;28;20041;-82
2022/10/19 09:01:08;;;;;;;0.20;0.10;;;;;;;;;;5044889;28;20051;-87
2022/10/19 09:03:41;;;;;;;0.20;0.10;;;;;;;;;;5056850;28;20114;-86
2022/10/19 09:06:08;;;;;;;0.20;0.10;;;;;;;;;;5060416;28;20032;-84
2022/10/19 09:08:36;;;;;;;0.20;0.10;;;;;;;;;;5054536;28;20029;-84
2022/10/19 09:11:02;;;;;;;0.20;0.10;;;;;;;;;;5059519;28;20139;-82
2022/10/19 09:13:39;;;;;;;0.20;0.10;;;;;;;;;;5042837;28;20059;-83
2022/10/19 09:16:05;;;;;;;0.20;0.10;;;;;;;;;;5041519;28;20375;-82
2022/10/19 09:18:33;;;;;;;0.20;0.10;;;;;;;;;;5026886;28;20127;-85
2022/10/19 09:21:05;;;;;;;0.20;0.10;;;;;;;;;;5042352;28;20059;-83
2022/10/19 09:23:37;;;;;;;0.20;0.10;;;;;;;;;;5060014;28;20075;-85
2022/10/19 09:26:05;;;;;;;0.20;0.10;;;;;;;;;;5062719;28;20033;-84
2022/10/19 09:28:34;;;;;;;0.20;0.03;;;;;;;;;;5043343;28;20045;-86
2022/10/19 09:31:01;;;;;;;0.20;0.10;;;;;;;;;;5040470;28;20068;-84
2022/10/19 09:33:30;;;;;;;0.20;0.10;;;;;;;;;;5059543;28;20028;-84
2022/10/19 09:35:56;;;;;;;0.20;0.10;;;;;;;;;;5059067;28;20040;-85
2022/10/19 09:38:25;;;;;;;0.20;0.10;;;;;;;;;;5025136;28;20392;-83
2022/10/19 09:40:51;;;;;;;0.20;0.10;;;;;;;;;;5057686;28;20040;-81
2022/10/19 09:43:19;;;;;;;0.20;0.10;;;;;;;;;;5057914;28;20064;-82
2022/10/19 09:45:53;;;;;;;0.20;0.10;;;;;;;;;;5024595;28;20048;-83
2022/10/19 09:48:25;;;;;;;0.20;0.10;;;;;;;;;;5068321;28;20054;-85
2022/10/19 09:50:57;;;;;;;0.20;0.10;;;;;;;;;;5037173;28;20040;-84
2022/10/19 09:53:25;;;;;;;0.20;0.10;;;;;;;;;;5038748;28;20075;-85
2022/10/19 09:55:57;;;;;;;0.20;0.10;;;;;;;;;;5036259;28;20032;-85
2022/10/19 09:58:25;;;;;;;0.20;0.10;;;;;;;;;;5041314;28;20037;-83
2022/10/19 10:00:55;;;;;;;0.20;0.10;;;;;;;;;;5050420;28;20360;-82
2022/10/19 10:03:26;;;;;;;0.20;0.10;;;;;;;;;;5040784;28;20048;-87
2022/10/19 10:05:52;;;;;;;0.20;0.10;;;;;;;;;;5041208;28;20040;-82
2022/10/19 10:08:21;;;;;;;0.20;0.10;;;;;;;;;;5057065;28;20430;-82
2022/10/19 10:10:57;;;;;;;0.20;0.10;;;;;;;;;;5041475;28;20036;-83
2022/10/19 10:13:24;;;;;;;0.20;0.10;;;;;;;;;;5039583;28;20139;-83
2022/10/19 10:16:00;;;;;;;0.20;0.10;;;;;;;;;;5040229;28;20679;-81
2022/10/19 10:18:28;;;;;;;0.20;0.10;;;;;;;;;;5057151;28;20040;-81
2022/10/19 10:21:00;;;;;;;0.20;0.10;;;;;;;;;;5039034;28;20045;-84
2022/10/19 10:23:29;;;;;;;0.20;0.10;;;;;;;;;;5038857;28;20037;-84
2022/10/19 10:25:56;;;;;;;0.20;0.10;;;;;;;;;;5058268;28;20071;-84
2022/10/19 10:28:24;;;;;;;0.20;0.10;;;;;;;;;;5040982;28;20044;-85
2022/10/19 10:31:10;;;;;;;0.20;0.10;;;;;;;;;;5058487;28;20036;-85
2022/10/19 10:33:37;;;;;;;0.20;0.10;;;;;;;;;;5039523;28;20105;-83
2022/10/19 10:36:10;;;;;;;0.20;0.10;;;;;;;;;;5039316;28;20491;-86
2022/10/19 10:38:38;;;;;;;0.20;0.10;;;;;;;;;;5057668;28;20049;-83
2022/10/19 10:41:10;;;;;;;0.20;0.00;;;;;;;;;;5051633;28;20045;-85
2022/10/19 10:43:38;;;;;;;0.20;0.10;;;;;;;;;;5040435;28;20032;-82
2022/10/19 10:46:06;;;;;;;0.20;0.10;;;;;;;;;;5041144;28;20041;-82
2022/10/19 10:48:39;;;;;;;0.20;0.10;;;;;;;;;;5038863;28;20040;-85
2022/10/19 10:51:20;;;;;;;0.20;0.10;;;;;;;;;;5038444;28;20518;-83
2022/10/19 10:53:46;;;;;;;0.20;0.10;;;;;;;;;;5057928;28;20441;-83
2022/10/19 10:56:25;;;;;;;0.20;0.10;;;;;;;;;;5041469;28;20063;-84
2022/10/19 10:59:07;;;;;;;0.20;0.10;;;;;;;;;;5042124;28;20115;-82
2022/10/19 11:01:36;;;;;;;0.20;0.10;;;;;;;;;;5040924;28;20126;-82
2022/10/19 11:04:10;;;;;;;0.20;0.10;;;;;;;;;;5056272;28;20051;-81
2022/10/19 11:06:40;;;;;;;0.20;0.10;;;;;;;;;;5043115;28;20501;-83
2022/10/19 11:09:08;;;;;;;0.20;0.10;;;;;;;;;;5037195;28;20055;-84
2022/10/19 11:11:39;;;;;;;0.20;0.10;;;;;;;;;;5042384;28;20033;-84
2022/10/19 11:14:08;;;;;;;0.20;0.10;;;;;;;;;;5053192;28;20558;-86
2022/10/19 11:16:41;;;;;;;0.20;0.10;;;;;;;;;;5040551;28;20197;-88
2022/10/19 11:19:26;;;;;;;0.20;0.10;;;;;;;;;;5059234;28;20837;-85
2022/10/19 11:21:55;;;;;;;0.20;0.10;;;;;;;;;;5041768;28;20052;-85
2022/10/19 11:24:30;;;;;;;0.20;0.10;;;;;;;;;;5042963;28;20037;-84
2022/10/19 11:27:02;;;;;;;0.20;0.10;;;;;;;;;;5044056;28;20033;-87
2022/10/19 11:29:46;;;;;;;0.20;0.10;;;;;;;;;;5042706;28;21159;-84
2022/10/19 11:32:24;;;;;;;0.20;0.10;;;;;;;;;;5044432;28;20040;-84
2022/10/19 11:35:02;;;;;;;0.20;0.10;;;;;;;;;;5038909;28;20064;-85
2022/10/19 11:37:38;;;;;;;0.20;0.10;;;;;;;;;;5039381;28;20691;-85
2022/10/19 11:40:16;;;;;;;0.20;0.10;;;;;;;;;;5061729;28;20048;-85
2022/10/19 11:42:48;;;;;;;0.20;0.10;;;;;;;;;;5043065;28;20049;-83
2022/10/19 11:45:17;;;;;;;0.20;0.10;;;;;;;;;;5038118;28;20048;-83
2022/10/19 11:47:50;;;;;;;0.20;0.10;;;;;;;;;;5041596;28;20047;-84
2022/10/19 11:50:22;;;;;;;0.20;0.10;;;;;;;;;;5062329;28;20348;-83
2022/10/19 11:52:48;;;;;;;0.20;0.10;;;;;;;;;;5044912;28;20028;-84
2022/10/19 11:55:26;;;;;;;0.20;0.10;;;;;;;;;;5044380;28;20460;-87
2022/10/19 11:57:59;;;;;;;0.20;0.10;;;;;;;;;;5044592;28;20950;-83
2022/10/19 12:00:26;;;;;;;0.20;0.10;;;;;;;;;;5041916;28;20040;-84
2022/10/19 12:02:56;;;;;;;0.20;0.10;;;;;;;;;;5041363;28;20040;-84
2022/10/19 12:05:23;;;;;;;0.20;0.10;;;;;;;;;;5042065;28;20526;-84
2022/10/19 12:08:01;;;;;;;0.20;0.10;;;;;;;;;;5060168;28;20078;-85
2022/10/19 12:10:42;;;;;;;0.20;0.10;;;;;;;;;;5058232;28;20086;-84
2022/10/19 12:13:10;;;;;;;0.20;0.10;;;;;;;;;;5052367;28;20193;-83
2022/10/19 12:15:41;;;;;;;0.20;0.10;;;;;;;;;;5047176;28;20051;-84
2022/10/19 12:18:13;;;;;;;0.20;0.10;;;;;;;;;;5058826;28;20371;-84
2022/10/19 12:20:42;;;;;;;0.20;0.10;;;;;;;;;;5060616;28;20569;-84
2022/10/19 12:23:35;;;;;;;0.20;0.10;;;;;;;;;;5045900;28;20773;-86
2022/10/19 12:26:05;;;;;;;0.20;0.00;;;;;;;;;;5031874;28;20056;-84
2022/10/19 12:28:33;;;;;;;0.20;0.10;;;;;;;;;;5064442;28;20081;-83
2022/10/19 12:31:01;;;;;;;0.20;0.10;;;;;;;;;;5060282;28;20045;-84
2022/10/19 12:33:30;;;;;;;0.20;0.10;;;;;;;;;;5041806;28;20105;-83
2022/10/19 12:36:09;;;;;;;0.20;0.10;;;;;;;;;;5059091;28;20032;-85
2022/10/19 12:38:39;;;;;;;0.20;0.10;;;;;;;;;;5060377;28;20044;-86
2022/10/19 12:41:05;;;;;;;0.20;0.10;;;;;;;;;;5043908;28;20070;-85
2022/10/19 12:43:42;;;;;;;0.20;0.10;;;;;;;;;;5044655;28;20037;-85
2022/10/19 12:46:24;;;;;;;0.20;0.10;;;;;;;;;;5044507;28;20110;-85
2022/10/19 12:49:10;;;;;;;0.20;0.10;;;;;;;;;;5061026;28;20047;-85
2022/10/19 12:51:46;;;;;;;0.20;0.10;;;;;;;;;;5036453;28;20107;-84
2022/10/19 12:54:12;;;;;;;0.20;0.10;;;;;;;;;;5062801;28;20038;-86
2022/10/19 12:56:49;;;;;;;0.20;0.10;;;;;;;;;;5045854;28;20514;-85
2022/10/19 12:59:25;;;;;;;0.20;0.10;;;;;;;;;;5059964;28;20116;-84
2022/10/19 13:01:51;;;;;;;0.20;0.10;;;;;;;;;;5043520;28;20522;-85
2022/10/19 13:04:19;;;;;;;0.20;0.10;;;;;;;;;;5044422;28;20507;-86
2022/10/19 13:06:48;;;;;;;0.20;0.10;;;;;;;;;;5043885;28;20044;-85
2022/10/19 13:09:26;;;;;;;0.20;0.10;;;;;;;;;;5061414;28;20529;-84
2022/10/19 13:12:20;;;;;;;0.20;0.10;;;;;;;;;;5033262;28;20041;-84
2022/10/19 13:14:50;;;;;;;0.20;0.10;;;;;;;;;;5037912;28;20074;-84
2022/10/19 13:17:45;;;;;;;0.20;0.10;;;;;;;;;;5038303;28;20456;-85
2022/10/19 13:20:14;;;;;;;0.20;0.10;;;;;;;;;;5045648;28;20032;-86
2022/10/19 13:22:43;;;;;;;0.20;0.10;;;;;;;;;;5059533;28;20036;-85
2022/10/19 13:25:16;;;;;;;0.20;0.10;;;;;;;;;;5063073;28;20075;-85
2022/10/19 13:27:43;;;;;;;0.20;0.10;;;;;;;;;;5041844;28;20086;-86
2022/10/19 13:30:27;;;;;;;0.20;0.10;;;;;;;;;;5061433;28;20123;-85
2022/10/19 13:32:54;;;;;;;0.20;0.10;;;;;;;;;;5045823;28;20032;-86
2022/10/19 13:35:30;;;;;;;0.20;0.10;;;;;;;;;;5043302;28;20036;-85
2022/10/19 13:38:11;;;;;;;0.20;0.10;;;;;;;;;;5060189;28;20032;-86
2022/10/19 13:40:55;;;;;;;0.20;0.10;;;;;;;;;;5043557;28;20101;-82
2022/10/19 13:43:32;;;;;;;0.20;0.10;;;;;;;;;;5041297;28;20198;-87
2022/10/19 13:46:07;;;;;;;0.20;0.10;;;;;;;;;;5041820;28;20049;-82
2022/10/19 13:48:52;;;;;;;0.20;0.10;;;;;;;;;;5044583;28;20033;-83
2022/10/19 13:51:28;;;;;;;0.20;0.10;;;;;;;;;;5060569;28;20115;-83
2022/10/19 13:54:23;;;;;;;0.20;0.10;;;;;;;;;;5057425;22;20056;-91
2022/10/19 13:57:04;;;;;;;0.20;0.10;;;;;;;;;;5002792;28;20053;-91
2022/10/19 13:59:30;;;;;;;0.40;0.10;;;;;;;;;;5034647;28;20123;-88
2022/10/19 14:01:56;;;;;;;0.20;0.10;;;;;;;;;;5033154;28;20541;-88
2022/10/19 14:04:52;;;;;;;0.20;0.10;;;;;;;;;;5042219;28;20048;-90
2022/10/19 14:07:41;;;;;;;0.20;0.10;;;;;;;;;;5010903;28;20037;-89
2022/10/19 14:10:13;;;;;;;0.20;0.10;;;;;;;;;;4987992;28;20052;-89
2022/10/19 14:12:41;;;;;;;0.20;0.10;;;;;;;;;;5023132;28;20389;-89
2022/10/19 14:15:27;;;;;;;0.20;0.10;;;;;;;;;;5029885;28;20033;-86
2022/10/19 14:17:54;;;;;;;0.20;0.10;;;;;;;;;;5016645;28;20037;-86
2022/10/19 14:20:25;;;;;;;0.20;0.10;;;;;;;;;;5026460;28;20411;-88
2022/10/19 14:22:51;;;;;;;0.20;0.10;;;;;;;;;;5024712;28;20449;-88
2022/10/19 14:25:18;;;;;;;0.20;0.10;;;;;;;;;;5029161;28;20043;-88
2022/10/19 14:27:46;;;;;;;0.20;0.10;;;;;;;;;;5037309;28;20088;-87
2022/10/19 14:30:28;;;;;;;0.20;0.10;;;;;;;;;;5023172;28;20049;-89
2022/10/19 14:32:55;;;;;;;0.20;0.10;;;;;;;;;;5021091;28;20310;-88
2022/10/19 14:35:37;;;;;;;0.30;0.15;;;;;;;;;;5027087;28;20099;-84
2022/10/19 14:38:10;;;;;;;0.20;0.10;;;;;;;;;;5028662;28;20128;-88
2022/10/19 14:40:43;;;;;;;0.20;0.10;;;;;;;;;;5032997;28;20056;-88
2022/10/19 14:43:20;;;;;;;0.20;0.10;;;;;;;;;;5026800;28;20072;-89
2022/10/19 14:46:02;;;;;;;0.20;0.10;;;;;;;;;;5034678;28;20060;-87
2022/10/19 14:48:28;;;;;;;0.20;0.10;;;;;;;;;;5031028;28;20100;-89
2022/10/19 14:50:57;;;;;;;0.20;0.10;;;;;;;;;;5015842;28;20041;-86
2022/10/19 14:53:41;;;;;;;0.20;0.10;;;;;;;;;;5020306;28;20052;-89
2022/10/19 14:56:26;;;;;;;0.20;0.10;;;;;;;;;;5019132;28;20033;-88
2022/10/19 14:58:55;;;;;;;0.20;0.10;;;;;;;;;;5028177;28;20048;-86